Hakon Mosby — LJIT — position and weather

sailwx.info

Track history (hours):
 
Tides and Currents Weather Stations Pressure Air Temp Water Temp Dewpoint Dewpoint Depression Visibility Wind Speed Wind Dir Waves Ship Positions

Oceanographic research ship Hakon Mosby (Norway)

Detailed information on ship capabilities available from University of Delaware's Ocean Information Center and ARCUS's ALIAS (Arctic Logistics Information and Support) project.

Last reported at 2015-May-28 03:00 UTC. Time now 2015-May-28 06:05 UTC.
Position N 66°00' E 001°36'.

Type: Dredging. MMSI: 258244000.

Wind from 190 at 17 knots

Barometer 1001.8 mb
Air temperature 7.5 ° C
Dewpoint 5.4 ° C
Water temperature 6.9 ° C

Date/timePositionNaut miles runAvg speedWind from/ knotsBaromVisibWave heightAir tempDewpointWater temp
2015-May-28 03:00N 66°00' E 001°36'9 9.5 190 / 171001.8 7.5 5.4 6.9
2015-May-28 02:00N 66°06' E 001°18'0 0.0 180 / 191001.7 7.5 5.8 6.8
2015-May-28 01:00N 66°06' E 001°18'1111.4 150 / 171002.0 7.3 6.0 6.9
2015-May-28 00:00N 66°00' E 001°42'1515.5 140 / 171002.4 7.5 5.9 7.3
2015-May-27 23:00N 65°48' E 002°06'0 0.0 160 / 161003.1 7.5 5.9 6.8
2015-May-27 21:00N 65°48' E 002°06'0 0.0 140 / 141003.0 7.5 5.1 7.0
2015-May-27 20:00N 65°48' E 002°06'0 0.0 140 / 141004.5 7.6 4.9 7.1
2015-May-27 19:00N 65°48' E 002°06'2 2.5 140 / 141005.0 7.3 4.3 7.0
2015-May-27 18:00N 65°48' E 002°12'6 6.0 150 / 121005.5 7.2 3.7 7.0
2015-May-27 17:00N 65°42' E 002°12'1212.3 170 / 101005.9 8.2 2.7 6.9
2015-May-27 16:00N 65°30' E 002°18'1212.3 170 / 101006.5 8.3 2.8 7.0
2015-May-27 15:00N 65°18' E 002°24'1212.3 180 / 121006.8 7.9 2.9 7.2
2015-May-27 14:00N 65°06' E 002°30'7 6.5 200 / 141007.2 7.6 2.7 7.3
2015-May-27 13:00N 65°00' E 002°36'1212.3 210 / 171007.3 7.0 2.3 7.1
2015-May-27 12:00N 64°48' E 002°42'1212.3 210 / 161007.5 7.8 3.2 7.1
2015-May-27 11:00N 64°36' E 002°48'1212.3 210 / 101007.7 7.5 2.8 7.9
2015-May-27 10:00N 64°24' E 002°54'1212.3 210 / 161008.0 7.8 3.3 8.3
2015-May-27 09:00N 64°12' E 003°00'1212.3 220 / 161008.5 7.7 3.0 8.1
2015-May-27 08:00N 64°00' E 003°06'18 9.1 220 / 141008.6 7.4 3.0 8.1
2015-May-27 06:00N 63°42' E 003°12'1212.3 230 / 121008.9 7.6 2.8 8.3
2015-May-27 05:00N 63°30' E 003°18'1212.3 240 / 101009.3 7.3 2.9 8.5
2015-May-27 04:00N 63°18' E 003°24'1212.3 240 / 161009.7 6.6 2.3 8.1
2015-May-27 03:00N 63°06' E 003°30'1212.3 260 / 81010.2 7.5 3.7 8.3
2015-May-27 02:00N 62°54' E 003°36'1212.3 250 / 101010.3 7.6 2.7 7.9
2015-May-27 01:00N 62°42' E 003°42'6 6.0 250 / 101010.7 7.8 3.5 8.0
2015-May-27 00:00N 62°36' E 003°42'1212.3 250 / 121011.1 -0.0-3.4 7.6
2015-May-26 23:00N 62°24' E 003°48'2512.3 250 / 121011.2 7.7 4.3 7.8
2015-May-26 21:00N 62°00' E 004°00'1212.0 280 / 141011.8 8.1 3.5 8.0
2015-May-26 20:00N 61°48' E 004°00'7 6.6 280 / 141012.2 8.3 3.8 7.8
2015-May-26 19:00N 61°42' E 004°06'1212.3 280 / 121012.3 8.3 5.0 8.2
2015-May-26 18:00N 61°30' E 004°12'1212.0 230 / 101012.5 7.8 5.8 8.4
2015-May-26 17:00N 61°18' E 004°12'1212.3 230 / 141012.7 7.3 5.8 8.3
2015-May-26 16:00N 61°06' E 004°18'1212.3 230 / 101013.1 8.5 4.9 8.8
2015-May-26 15:00N 60°54' E 004°24'7 6.7 220 / 101013.3 8.6 4.9 8.6
2015-May-26 14:00N 60°48' E 004°30'2210.8 240 / 61014.0 7.6 4.1 8.8
2015-May-26 12:00N 60°30' E 004°54'1313.4 310 / 81014.0 8.8 2.8 9.7
2015-May-26 11:00N 60°18' E 005°06'3 3.0 010 / 141013.8 9.0 3.2 9.1
2015-May-26 10:00N 60°18' E 005°12'0 0.0 210 / 61013.6 9.6 3.5 8.8
2015-May-26 09:00N 60°18' E 005°12'3 3.0 290 / 21013.7 8.0 4.5 8.7
2015-May-26 08:00N 60°18' E 005°18'0 0.0 310 / 21013.5 8.3 4.4 8.9
2015-May-26 07:00N 60°18' E 005°18'0 0.0 300 / 41013.3 7.6 4.5 9.0
2015-May-26 06:00N 60°18' E 005°18'0 0.0 300 / 41013.1 7.4 4.1 9.0
2015-May-26 05:00N 60°18' E 005°18'0 0.0 260 / 21013.0 7.3 4.3 9.2
2015-May-26 04:00N 60°18' E 005°18'0 0.0 300 1013.0 7.0 4.3 9.1
2015-May-26 03:00N 60°18' E 005°18'0 0.0 300 / 21012.8 6.8 4.5 9.0
2015-May-26 02:00N 60°18' E 005°18'0 0.0 280 / 21012.5 6.6 4.1 9.2
2015-May-26 00:00N 60°18' E 005°18'0 0.0 310 / 61012.7 7.6 4.8 9.2
2015-May-25 23:00N 60°18' E 005°18'0 0.0 310 / 41012.8 7.8 4.5 9.1
2015-May-25 22:00N 60°18' E 005°18'0 0.0 320 / 41012.6 8.3 4.6 9.3
2015-May-25 21:00N 60°18' E 005°18'0 0.0 320 / 81012.2 9.0 5.0 9.2
2015-May-25 20:00N 60°18' E 005°18'0 0.0 330 / 41012.1 9.1 5.1 9.2
2015-May-25 19:00N 60°18' E 005°18'0 0.0 330 / 61011.7 9.3 4.0 9.3
2015-May-25 18:00N 60°18' E 005°18'0 0.0 310 / 81011.2 9.3 4.0 9.3
2015-May-25 17:00N 60°18' E 005°18'0 0.0 290 / 61011.0 9.6 3.9 9.3
2015-May-25 16:00N 60°18' E 005°18'0 0.0 240 / 21010.8 8.5 4.3 9.3
2015-May-25 15:00N 60°18' E 005°18'0 0.0 170 / 41010.8 8.3 4.1 9.2
2015-May-25 14:00N 60°18' E 005°18'0 0.0 260 / 21010.7 8.1 3.7 9.3
2015-May-25 13:00N 60°18' E 005°18'0 0.0 290 / 2 1.7-22.7 9.5
2015-May-25 12:00N 60°18' E 005°18'0 0.0 020 / 61010.2 8.4 2.6 9.3
2015-May-25 11:00N 60°18' E 005°18'0 0.0 320 / 61010.0 7.9 2.8 9.0
2015-May-25 10:00N 60°18' E 005°18'0 0.0 120 / 21009.6 8.8 3.7 8.8
2015-May-25 09:00N 60°18' E 005°18'0 0.0 170 / 21009.5 7.0 3.3 8.8
2015-May-25 08:00N 60°18' E 005°18'0 0.0 150 / 2 9.5 4.8 8.8
2015-May-25 07:00N 60°18' E 005°18'0 0.0 150 / 61009.1 8.0 4.0 8.6
2015-May-25 06:00N 60°18' E 005°18'0 0.0 140 / 41008.7 7.2 4.1 8.8
2015-May-25 05:00N 60°18' E 005°18'0 0.0 140 / 41008.6 7.3 4.5 9.1
2015-May-25 04:00N 60°18' E 005°18'0 0.0 140 / 41008.6 7.1 4.7 9.2
2015-May-25 03:00N 60°18' E 005°18'0 0.0 150 / 21008.6 7.0 4.9 9.1
2015-May-25 02:00N 60°18' E 005°18'0 0.0 140 / 41008.7 7.1 4.7 9.1
2015-May-25 01:00N 60°18' E 005°18'0 0.0 140 / 21008.7 7.1 4.6 9.0
2015-May-25 00:00N 60°18' E 005°18'0 0.0 150 / 41009.0 7.1 4.8 9.1
2015-May-24 23:00N 60°18' E 005°18'0 0.0 140 / 61009.3 7.1 4.4 9.3
2015-May-24 22:00N 60°18' E 005°18'0 0.0 170 / 61009.7 7.2 4.2 9.2
2015-May-24 21:00N 60°18' E 005°18'0 0.0 170 / 41009.6 7.8 5.0 9.2
2015-May-24 20:00N 60°18' E 005°18'0 0.0 160 / 61009.7 8.1 4.4 9.2
2015-May-24 19:00N 60°18' E 005°18'0 0.0 190 / 41009.7 8.6 4.9 9.3
2015-May-24 18:00N 60°18' E 005°18'0 0.0 200 / 21009.6 8.9 4.8 9.2
2015-May-24 17:00N 60°18' E 005°18'0 0.0 300 / 21009.5 9.1 4.8 9.1
2015-May-24 16:00N 60°18' E 005°18'0 0.0 080 / 21009.3 8.1 6.0 9.0
2015-May-24 15:00N 60°18' E 005°18'0 0.0 090 / 21009.3 7.8 5.8 8.9
2015-May-24 14:00N 60°18' E 005°18'0 0.0 320 / 41009.2 7.8 6.1 9.0
2015-May-24 13:00N 60°18' E 005°18'0 0.0 170 / 21008.7 9.3 7.4 9.0
2015-May-24 12:00N 60°18' E 005°18'0 0.0 160 / 14 8.6 6.5 9.1
2015-May-24 11:00N 60°18' E 005°18'0 0.0 160 / 121008.0 8.3 6.1 9.2
2015-May-24 10:00N 60°18' E 005°18'0 0.0 160 / 141008.2 7.8 5.3 9.2
2015-May-24 09:00N 60°18' E 005°18'0 0.0 160 / 161008.7 7.5 4.4 9.2
2015-May-24 08:00N 60°18' E 005°18'0 0.0 160 / 141009.2 7.3 3.6 9.2
2015-May-24 06:00N 60°18' E 005°18'0 0.0 160 / 121010.7 6.8 2.8 9.3
2015-May-24 05:00N 60°18' E 005°18'0 0.0 160 / 101012.1 6.1 2.1 9.3
2015-May-24 04:00N 60°18' E 005°18'0 0.0 170 / 81013.7 6.1 1.6 9.3
2015-May-24 03:00N 60°18' E 005°18'0 0.0 160 / 101014.5 6.3 0.5 9.3
2015-May-24 02:00N 60°18' E 005°18'0 0.0 170 / 61015.3 6.0 0.3 9.4
2015-May-24 00:00N 60°18' E 005°18'0 0.0 150 / 61017.0 5.6 0.1 9.4
2015-May-23 23:00N 60°18' E 005°18'0 0.0 160 / 41017.7 5.7 0.1 9.4
2015-May-23 22:00N 60°18' E 005°18'0 0.0 170 / 41018.2 6.1-0.1 9.4
2015-May-23 21:00N 60°18' E 005°18'0 0.0 270 / 21018.6 6.8-0.2 9.5
2015-May-23 20:00N 60°18' E 005°18'0 0.0 320 / 21019.1 7.2 0.6 9.3
2015-May-23 19:00N 60°18' E 005°18'0 0.0 320 / 21019.7 7.8 0.5 9.4
2015-May-23 18:00N 60°18' E 005°18'0 0.0 320 / 41020.2 8.1-0.1 9.3
2015-May-23 17:00N 60°18' E 005°18'0 0.0 310 / 61020.7 7.6 0.8 9.3
2015-May-23 16:00N 60°18' E 005°18'0 0.0 320 / 61021.0 7.8 0.6 9.2
2015-May-23 15:00N 60°18' E 005°18'0 0.0 320 / 41021.1 8.2-0.6 9.1
2015-May-23 14:00N 60°18' E 005°18'0 0.0 320 / 61021.3 7.6 0.8 9.0
2015-May-23 13:00N 60°18' E 005°18'0 0.0 320 / 61021.2 7.8 0.1 9.0
2015-May-23 12:00N 60°18' E 005°18'0 0.0 320 / 81020.7 8.2 0.7 8.8
2015-May-23 11:00N 60°18' E 005°18'0 0.0 330 / 81020.6 7.8 0.5 8.8
2015-May-23 10:00N 60°18' E 005°18'0 0.0 330 / 101020.3 7.8 1.3 8.8
2015-May-23 09:00N 60°18' E 005°18'0 0.0 320 / 101020.0 7.6 1.4 8.8
2015-May-23 08:00N 60°18' E 005°18'0 0.0 330 / 81019.7 6.7 2.6 8.8
2015-May-23 07:00N 60°18' E 005°18'0 0.0 320 / 81019.2 6.8 2.6 8.6
2015-May-23 06:00N 60°18' E 005°18'0 0.0 320 / 81018.7 6.8 2.2 8.6
2015-May-23 05:00N 60°18' E 005°18'0 0.0 330 / 121018.1 6.9 2.5 8.6
2015-May-23 04:00N 60°18' E 005°18'0 0.0 330 / 141017.1 7.3 2.3 8.8
2015-May-23 03:00N 60°18' E 005°18'0 0.0 330 / 141016.3 7.3 3.9 8.8
2015-May-23 02:00N 60°18' E 005°18'0 0.0 330 / 141015.7 7.6 4.6 8.8
2015-May-23 01:00N 60°18' E 005°18'0 0.0 320 / 141014.7 8.1 4.7 8.6
2015-May-23 00:00N 60°18' E 005°18'0 0.0 320 / 121013.7 7.8 5.2 8.6
2015-May-22 23:00N 60°18' E 005°18'0 0.0 310 / 121012.7 8.2 5.8 8.6
2015-May-22 22:00N 60°18' E 005°18'0 0.0 300 / 81012.0 7.6 4.6 8.6
2015-May-22 21:00N 60°18' E 005°18'0 0.0 300 / 61011.7 7.1 2.9 8.7
2015-May-22 20:00N 60°18' E 005°18'0 0.0 280 / 21011.2 7.3 3.2 8.7
2015-May-22 19:00N 60°18' E 005°18'0 0.0 300 / 61011.1 7.3 2.8 8.8
2015-May-22 18:00N 60°18' E 005°18'0 0.0 250 / 41010.7 6.5 2.4 8.8
2015-May-22 17:00N 60°18' E 005°18'0 0.0 240 / 21010.6 7.8 2.6 8.6
2015-May-22 16:00N 60°18' E 005°18'0 0.0 200 / 41010.5 8.7 3.3 8.8
2015-May-22 15:00N 60°18' E 005°18'0 0.0 190 / 61010.7 8.1 3.7 8.8
2015-May-22 14:00N 60°18' E 005°18'0 0.0 230 / 41010.8 7.1 3.6 8.8
2015-May-22 13:00N 60°18' E 005°18'0 0.0 200 / 61010.6 8.1 4.5 8.7
2015-May-22 12:00N 60°18' E 005°18'0 0.0 180 / 81010.5 8.3 5.6 8.8
2015-May-22 11:00N 60°18' E 005°18'0 0.0 330 / 41010.6 8.8 6.1 8.8
2015-May-20 12:00N 60°18' E 005°18'0 0.0 320 / 81009.2 10.8 2.610.2
2015-May-20 11:00N 60°18' E 005°18'0 0.0 330 / 21008.2 10.8 2.0 9.9
2015-May-20 10:00N 60°18' E 005°18'0 0.0 330 / 41007.6 10.7 1.5 9.8
2015-May-20 09:00N 60°18' E 005°18'0 0.0 330 / 21006.7 9.8 2.4 9.8
2015-May-20 08:00N 60°18' E 005°18'0 0.0 320 / 41006.2 9.1 2.2 9.7
2015-May-20 07:00N 60°18' E 005°18'0 0.0 150 / 21005.6 9.5 2.4 9.8
2015-May-20 06:00N 60°18' E 005°18'0 0.0 340 / 21004.8 9.1 2.5 9.7
2015-May-20 05:00N 60°18' E 005°18'0 0.0 020 1004.1 7.6 3.3 9.6
2015-May-20 04:00N 60°18' E 005°18'0 0.0 220 / 21003.5 7.1 3.2 9.6
2015-May-20 03:00N 60°18' E 005°18'0 0.0 130 / 21002.8 7.1 2.810.0
2015-May-20 02:00N 60°18' E 005°18'0 0.0 160 / 41002.2 7.6 2.610.1
2015-May-20 00:00N 60°18' E 005°18'0 0.0 160 / 61001.2 7.6 3.110.2
2015-May-19 23:00N 60°18' E 005°18'0 0.0 160 / 61000.7 7.5 3.710.2
2015-May-19 22:00N 60°18' E 005°18'0 0.0 160 / 61000.2 7.3 3.910.3
2015-May-19 21:00N 60°18' E 005°18'0 0.0 150 / 6999.5 7.3 5.010.2
2015-May-19 20:00N 60°18' E 005°18'0 0.0 140 / 4999.0 7.6 4.410.3
2015-May-19 19:00N 60°18' E 005°18'0 0.0 220 / 4998.1 8.0 4.210.3
2015-May-19 18:00N 60°18' E 005°18'0 0.0 200 / 2997.4 9.0 4.810.2
2015-May-19 17:00N 60°18' E 005°18'0 0.0 180 / 8997.0 9.6 4.310.3
2015-May-19 16:00N 60°18' E 005°18'0 0.0 160 / 4995.8 10.5 2.610.3
2015-May-19 15:00N 60°18' E 005°18'0 0.0 160 / 4995.6 10.6 3.610.1
2015-May-19 14:00N 60°18' E 005°18'0 0.0 160 / 6995.0 11.0 4.010.1
2015-May-19 13:00N 60°18' E 005°18'0 0.0 180 / 6995.0 9.3 4.610.2
2015-May-19 12:00N 60°18' E 005°18'0 0.0 180 / 6993.9 11.7 3.710.3
2015-May-19 11:00N 60°18' E 005°18'0 0.0 170 / 6994.0 8.3 3.610.1
2015-May-19 10:00N 60°18' E 005°18'0 0.0 180 / 8993.4 8.6 3.710.0
2015-May-19 09:00N 60°18' E 005°18'0 0.0 180 / 6992.0 0.7-7.310.1
2015-May-19 08:00N 60°18' E 005°18'0 0.0 140 / 8991.3 11.4-0.110.2
2015-May-19 06:00N 60°18' E 005°18'0 0.0 120 / 14991.0 11.1-1.910.2
2015-May-19 05:00N 60°18' E 005°18'0 0.0 130 / 10992.0 9.6-0.010.3
2015-May-19 04:00N 60°18' E 005°18'0 0.0 120 / 8992.5 11.0-3.110.3
2015-May-19 03:00N 60°18' E 005°18'0 0.0 130 / 12993.1 11.3-4.410.3
2015-May-19 02:00N 60°18' E 005°18'0 0.0 120 / 10994.0 11.3-5.710.4
2015-May-19 01:00N 60°18' E 005°18'0 0.0 120 / 6995.1 11.8-6.610.5
2015-May-19 00:00N 60°18' E 005°18'0 0.0 110 / 8995.8 12.0-6.010.4
2015-May-18 21:00N 60°18' E 005°18'0 0.0 140 / 10998.3 11.7-2.510.5
2015-May-18 20:00N 60°18' E 005°18'0 0.0 140 / 6998.5 12.8-3.510.5
2015-May-18 18:00N 60°18' E 005°18'0 0.0 130 / 4999.4 13.1-4.010.2
2015-May-18 16:00N 60°18' E 005°18'0 0.0 160 / 61001.2 12.8-4.610.1
2015-May-18 15:00N 60°18' E 005°18'0 0.0 140 / 61002.3 12.9-5.210.0
2015-May-18 14:00N 60°18' E 005°18'0 0.0 110 / 101003.1 11.1-3.310.1
2015-May-18 12:00N 60°18' E 005°18'0 0.0 180 / 81004.6 10.9-3.210.0
2015-May-18 11:00N 60°18' E 005°18'0 0.0 170 / 81004.8 11.4-4.3 9.8
2015-May-18 09:00N 60°18' E 005°18'0 0.0 160 / 61006.0 10.3-1.410.1
2015-May-18 08:00N 60°18' E 005°18'0 0.0 150 / 81006.6 9.2-0.710.0
2015-May-18 07:00N 60°18' E 005°18'0 0.0 160 / 61007.2 8.2 0.610.1
2015-May-18 06:00N 60°18' E 005°18'0 0.0 160 / 41008.0 7.5 1.510.1
2015-May-18 05:00N 60°18' E 005°18'0 0.0 170 / 41008.6 6.6 2.310.2
2015-May-18 04:00N 60°18' E 005°18'0 0.0 180 / 41008.8 5.5 2.410.1
2015-May-18 03:00N 60°18' E 005°18'   160 / 21009.2 5.4 2.410.3
Track history (hours):
 
Tides and Currents Weather Stations Pressure Air Temp Water Temp Dewpoint Dewpoint Depression Visibility Wind Speed Wind Dir Waves Ship Positions

Oceanographic research ship Hakon Mosby (Norway)

Detailed information on ship capabilities available from University of Delaware's Ocean Information Center and ARCUS's ALIAS (Arctic Logistics Information and Support) project.

Last reported at 2015-May-28 03:00 UTC. Time now 2015-May-28 06:05 UTC.
Position N 66°00' E 001°36'.

Type: Dredging. MMSI: 258244000.

Wind from 190 at 17 knots

Barometer 1001.8 mb
Air temperature 7.5 ° C
Dewpoint 5.4 ° C
Water temperature 6.9 ° C

Date/timePositionNaut miles runAvg speedWind from/ knotsBaromVisibWave heightAir tempDewpointWater temp
2015-May-28 03:00N 66°00' E 001°36'9 9.5 190 / 171001.8 7.5 5.4 6.9
2015-May-28 02:00N 66°06' E 001°18'0 0.0 180 / 191001.7 7.5 5.8 6.8
2015-May-28 01:00N 66°06' E 001°18'1111.4 150 / 171002.0 7.3 6.0 6.9
2015-May-28 00:00N 66°00' E 001°42'1515.5 140 / 171002.4 7.5 5.9 7.3
2015-May-27 23:00N 65°48' E 002°06'0 0.0 160 / 161003.1 7.5 5.9 6.8
2015-May-27 21:00N 65°48' E 002°06'0 0.0 140 / 141003.0 7.5 5.1 7.0
2015-May-27 20:00N 65°48' E 002°06'0 0.0 140 / 141004.5 7.6 4.9 7.1
2015-May-27 19:00N 65°48' E 002°06'2 2.5 140 / 141005.0 7.3 4.3 7.0
2015-May-27 18:00N 65°48' E 002°12'6 6.0 150 / 121005.5 7.2 3.7 7.0
2015-May-27 17:00N 65°42' E 002°12'1212.3 170 / 101005.9 8.2 2.7 6.9
2015-May-27 16:00N 65°30' E 002°18'1212.3 170 / 101006.5 8.3 2.8 7.0
2015-May-27 15:00N 65°18' E 002°24'1212.3 180 / 121006.8 7.9 2.9 7.2
2015-May-27 14:00N 65°06' E 002°30'7 6.5 200 / 141007.2 7.6 2.7 7.3
2015-May-27 13:00N 65°00' E 002°36'1212.3 210 / 171007.3 7.0 2.3 7.1
2015-May-27 12:00N 64°48' E 002°42'1212.3 210 / 161007.5 7.8 3.2 7.1
2015-May-27 11:00N 64°36' E 002°48'1212.3 210 / 101007.7 7.5 2.8 7.9
2015-May-27 10:00N 64°24' E 002°54'1212.3 210 / 161008.0 7.8 3.3 8.3
2015-May-27 09:00N 64°12' E 003°00'1212.3 220 / 161008.5 7.7 3.0 8.1
2015-May-27 08:00N 64°00' E 003°06'18 9.1 220 / 141008.6 7.4 3.0 8.1
2015-May-27 06:00N 63°42' E 003°12'1212.3 230 / 121008.9 7.6 2.8 8.3
2015-May-27 05:00N 63°30' E 003°18'1212.3 240 / 101009.3 7.3 2.9 8.5
2015-May-27 04:00N 63°18' E 003°24'1212.3 240 / 161009.7 6.6 2.3 8.1
2015-May-27 03:00N 63°06' E 003°30'1212.3 260 / 81010.2 7.5 3.7 8.3
2015-May-27 02:00N 62°54' E 003°36'1212.3 250 / 101010.3 7.6 2.7 7.9
2015-May-27 01:00N 62°42' E 003°42'6 6.0 250 / 101010.7 7.8 3.5 8.0
2015-May-27 00:00N 62°36' E 003°42'1212.3 250 / 121011.1 -0.0-3.4 7.6
2015-May-26 23:00N 62°24' E 003°48'2512.3 250 / 121011.2 7.7 4.3 7.8
2015-May-26 21:00N 62°00' E 004°00'1212.0 280 / 141011.8 8.1 3.5 8.0
2015-May-26 20:00N 61°48' E 004°00'7 6.6 280 / 141012.2 8.3 3.8 7.8
2015-May-26 19:00N 61°42' E 004°06'1212.3 280 / 121012.3 8.3 5.0 8.2
2015-May-26 18:00N 61°30' E 004°12'1212.0 230 / 101012.5 7.8 5.8 8.4
2015-May-26 17:00N 61°18' E 004°12'1212.3 230 / 141012.7 7.3 5.8 8.3
2015-May-26 16:00N 61°06' E 004°18'1212.3 230 / 101013.1 8.5 4.9 8.8
2015-May-26 15:00N 60°54' E 004°24'7 6.7 220 / 101013.3 8.6 4.9 8.6
2015-May-26 14:00N 60°48' E 004°30'2210.8 240 / 61014.0 7.6 4.1 8.8
2015-May-26 12:00N 60°30' E 004°54'1313.4 310 / 81014.0 8.8 2.8 9.7
2015-May-26 11:00N 60°18' E 005°06'3 3.0 010 / 141013.8 9.0 3.2 9.1
2015-May-26 10:00N 60°18' E 005°12'0 0.0 210 / 61013.6 9.6 3.5 8.8
2015-May-26 09:00N 60°18' E 005°12'3 3.0 290 / 21013.7 8.0 4.5 8.7
2015-May-26 08:00N 60°18' E 005°18'0 0.0 310 / 21013.5 8.3 4.4 8.9
2015-May-26 07:00N 60°18' E 005°18'0 0.0 300 / 41013.3 7.6 4.5 9.0
2015-May-26 06:00N 60°18' E 005°18'0 0.0 300 / 41013.1 7.4 4.1 9.0
2015-May-26 05:00N 60°18' E 005°18'0 0.0 260 / 21013.0 7.3 4.3 9.2
2015-May-26 04:00N 60°18' E 005°18'0 0.0 300 1013.0 7.0 4.3 9.1
2015-May-26 03:00N 60°18' E 005°18'0 0.0 300 / 21012.8 6.8 4.5 9.0
2015-May-26 02:00N 60°18' E 005°18'0 0.0 280 / 21012.5 6.6 4.1 9.2
2015-May-26 00:00N 60°18' E 005°18'0 0.0 310 / 61012.7 7.6 4.8 9.2
2015-May-25 23:00N 60°18' E 005°18'0 0.0 310 / 41012.8 7.8 4.5 9.1
2015-May-25 22:00N 60°18' E 005°18'0 0.0 320 / 41012.6 8.3 4.6 9.3
2015-May-25 21:00N 60°18' E 005°18'0 0.0 320 / 81012.2 9.0 5.0 9.2
2015-May-25 20:00N 60°18' E 005°18'0 0.0 330 / 41012.1 9.1 5.1 9.2
2015-May-25 19:00N 60°18' E 005°18'0 0.0 330 / 61011.7 9.3 4.0 9.3
2015-May-25 18:00N 60°18' E 005°18'0 0.0 310 / 81011.2 9.3 4.0 9.3
2015-May-25 17:00N 60°18' E 005°18'0 0.0 290 / 61011.0 9.6 3.9 9.3
2015-May-25 16:00N 60°18' E 005°18'0 0.0 240 / 21010.8 8.5 4.3 9.3
2015-May-25 15:00N 60°18' E 005°18'0 0.0 170 / 41010.8 8.3 4.1 9.2
2015-May-25 14:00N 60°18' E 005°18'0 0.0 260 / 21010.7 8.1 3.7 9.3
2015-May-25 13:00N 60°18' E 005°18'0 0.0 290 / 2 1.7-22.7 9.5
2015-May-25 12:00N 60°18' E 005°18'0 0.0 020 / 61010.2 8.4 2.6 9.3
2015-May-25 11:00N 60°18' E 005°18'0 0.0 320 / 61010.0 7.9 2.8 9.0
2015-May-25 10:00N 60°18' E 005°18'0 0.0 120 / 21009.6 8.8 3.7 8.8
2015-May-25 09:00N 60°18' E 005°18'0 0.0 170 / 21009.5 7.0 3.3 8.8
2015-May-25 08:00N 60°18' E 005°18'0 0.0 150 / 2 9.5 4.8 8.8
2015-May-25 07:00N 60°18' E 005°18'0 0.0 150 / 61009.1 8.0 4.0 8.6
2015-May-25 06:00N 60°18' E 005°18'0 0.0 140 / 41008.7 7.2 4.1 8.8
2015-May-25 05:00N 60°18' E 005°18'0 0.0 140 / 41008.6 7.3 4.5 9.1
2015-May-25 04:00N 60°18' E 005°18'0 0.0 140 / 41008.6 7.1 4.7 9.2
2015-May-25 03:00N 60°18' E 005°18'0 0.0 150 / 21008.6 7.0 4.9 9.1
2015-May-25 02:00N 60°18' E 005°18'0 0.0 140 / 41008.7 7.1 4.7 9.1
2015-May-25 01:00N 60°18' E 005°18'0 0.0 140 / 21008.7 7.1 4.6 9.0
2015-May-25 00:00N 60°18' E 005°18'0 0.0 150 / 41009.0 7.1 4.8 9.1
2015-May-24 23:00N 60°18' E 005°18'0 0.0 140 / 61009.3 7.1 4.4 9.3
2015-May-24 22:00N 60°18' E 005°18'0 0.0 170 / 61009.7 7.2 4.2 9.2
2015-May-24 21:00N 60°18' E 005°18'0 0.0 170 / 41009.6 7.8 5.0 9.2
2015-May-24 20:00N 60°18' E 005°18'0 0.0 160 / 61009.7 8.1 4.4 9.2
2015-May-24 19:00N 60°18' E 005°18'0 0.0 190 / 41009.7 8.6 4.9 9.3
2015-May-24 18:00N 60°18' E 005°18'0 0.0 200 / 21009.6 8.9 4.8 9.2
2015-May-24 17:00N 60°18' E 005°18'0 0.0 300 / 21009.5 9.1 4.8 9.1
2015-May-24 16:00N 60°18' E 005°18'0 0.0 080 / 21009.3 8.1 6.0 9.0
2015-May-24 15:00N 60°18' E 005°18'0 0.0 090 / 21009.3 7.8 5.8 8.9
2015-May-24 14:00N 60°18' E 005°18'0 0.0 320 / 41009.2 7.8 6.1 9.0
2015-May-24 13:00N 60°18' E 005°18'0 0.0 170 / 21008.7 9.3 7.4 9.0
2015-May-24 12:00N 60°18' E 005°18'0 0.0 160 / 14 8.6 6.5 9.1
2015-May-24 11:00N 60°18' E 005°18'0 0.0 160 / 121008.0 8.3 6.1 9.2
2015-May-24 10:00N 60°18' E 005°18'0 0.0 160 / 141008.2 7.8 5.3 9.2
2015-May-24 09:00N 60°18' E 005°18'0 0.0 160 / 161008.7 7.5 4.4 9.2
2015-May-24 08:00N 60°18' E 005°18'0 0.0 160 / 141009.2 7.3 3.6 9.2
2015-May-24 06:00N 60°18' E 005°18'0 0.0 160 / 121010.7 6.8 2.8 9.3
2015-May-24 05:00N 60°18' E 005°18'0 0.0 160 / 101012.1 6.1 2.1 9.3
2015-May-24 04:00N 60°18' E 005°18'0 0.0 170 / 81013.7 6.1 1.6 9.3
2015-May-24 03:00N 60°18' E 005°18'0 0.0 160 / 101014.5 6.3 0.5 9.3
2015-May-24 02:00N 60°18' E 005°18'0 0.0 170 / 61015.3 6.0 0.3 9.4
2015-May-24 00:00N 60°18' E 005°18'0 0.0 150 / 61017.0 5.6 0.1 9.4
2015-May-23 23:00N 60°18' E 005°18'0 0.0 160 / 41017.7 5.7 0.1 9.4
2015-May-23 22:00N 60°18' E 005°18'0 0.0 170 / 41018.2 6.1-0.1 9.4
2015-May-23 21:00N 60°18' E 005°18'0 0.0 270 / 21018.6 6.8-0.2 9.5
2015-May-23 20:00N 60°18' E 005°18'0 0.0 320 / 21019.1 7.2 0.6 9.3
2015-May-23 19:00N 60°18' E 005°18'0 0.0 320 / 21019.7 7.8 0.5 9.4
2015-May-23 18:00N 60°18' E 005°18'0 0.0 320 / 41020.2 8.1-0.1 9.3
2015-May-23 17:00N 60°18' E 005°18'0 0.0 310 / 61020.7 7.6 0.8 9.3
2015-May-23 16:00N 60°18' E 005°18'0 0.0 320 / 61021.0 7.8 0.6 9.2
2015-May-23 15:00N 60°18' E 005°18'0 0.0 320 / 41021.1 8.2-0.6 9.1
2015-May-23 14:00N 60°18' E 005°18'0 0.0 320 / 61021.3 7.6 0.8 9.0
2015-May-23 13:00N 60°18' E 005°18'0 0.0 320 / 61021.2 7.8 0.1 9.0
2015-May-23 12:00N 60°18' E 005°18'0 0.0 320 / 81020.7 8.2 0.7 8.8
2015-May-23 11:00N 60°18' E 005°18'0 0.0 330 / 81020.6 7.8 0.5 8.8
2015-May-23 10:00N 60°18' E 005°18'0 0.0 330 / 101020.3 7.8 1.3 8.8
2015-May-23 09:00N 60°18' E 005°18'0 0.0 320 / 101020.0 7.6 1.4 8.8
2015-May-23 08:00N 60°18' E 005°18'0 0.0 330 / 81019.7 6.7 2.6 8.8
2015-May-23 07:00N 60°18' E 005°18'0 0.0 320 / 81019.2 6.8 2.6 8.6
2015-May-23 06:00N 60°18' E 005°18'0 0.0 320 / 81018.7 6.8 2.2 8.6
2015-May-23 05:00N 60°18' E 005°18'0 0.0 330 / 121018.1 6.9 2.5 8.6
2015-May-23 04:00N 60°18' E 005°18'0 0.0 330 / 141017.1 7.3 2.3 8.8
2015-May-23 03:00N 60°18' E 005°18'0 0.0 330 / 141016.3 7.3 3.9 8.8
2015-May-23 02:00N 60°18' E 005°18'0 0.0 330 / 141015.7 7.6 4.6 8.8
2015-May-23 01:00N 60°18' E 005°18'0 0.0 320 / 141014.7 8.1 4.7 8.6
2015-May-23 00:00N 60°18' E 005°18'0 0.0 320 / 121013.7 7.8 5.2 8.6
2015-May-22 23:00N 60°18' E 005°18'0 0.0 310 / 121012.7 8.2 5.8 8.6
2015-May-22 22:00N 60°18' E 005°18'0 0.0 300 / 81012.0 7.6 4.6 8.6
2015-May-22 21:00N 60°18' E 005°18'0 0.0 300 / 61011.7 7.1 2.9 8.7
2015-May-22 20:00N 60°18' E 005°18'0 0.0 280 / 21011.2 7.3 3.2 8.7
2015-May-22 19:00N 60°18' E 005°18'0 0.0 300 / 61011.1 7.3 2.8 8.8
2015-May-22 18:00N 60°18' E 005°18'0 0.0 250 / 41010.7 6.5 2.4 8.8
2015-May-22 17:00N 60°18' E 005°18'0 0.0 240 / 21010.6 7.8 2.6 8.6
2015-May-22 16:00N 60°18' E 005°18'0 0.0 200 / 41010.5 8.7 3.3 8.8
2015-May-22 15:00N 60°18' E 005°18'0 0.0 190 / 61010.7 8.1 3.7 8.8
2015-May-22 14:00N 60°18' E 005°18'0 0.0 230 / 41010.8 7.1 3.6 8.8
2015-May-22 13:00N 60°18' E 005°18'0 0.0 200 / 61010.6 8.1 4.5 8.7
2015-May-22 12:00N 60°18' E 005°18'0 0.0 180 / 81010.5 8.3 5.6 8.8
2015-May-22 11:00N 60°18' E 005°18'0 0.0 330 / 41010.6 8.8 6.1 8.8
2015-May-20 12:00N 60°18' E 005°18'0 0.0 320 / 81009.2 10.8 2.610.2
2015-May-20 11:00N 60°18' E 005°18'0 0.0 330 / 21008.2 10.8 2.0 9.9
2015-May-20 10:00N 60°18' E 005°18'0 0.0 330 / 41007.6 10.7 1.5 9.8
2015-May-20 09:00N 60°18' E 005°18'0 0.0 330 / 21006.7 9.8 2.4 9.8
2015-May-20 08:00N 60°18' E 005°18'0 0.0 320 / 41006.2 9.1 2.2 9.7
2015-May-20 07:00N 60°18' E 005°18'0 0.0 150 / 21005.6 9.5 2.4 9.8
2015-May-20 06:00N 60°18' E 005°18'0 0.0 340 / 21004.8 9.1 2.5 9.7
2015-May-20 05:00N 60°18' E 005°18'0 0.0 020 1004.1 7.6 3.3 9.6
2015-May-20 04:00N 60°18' E 005°18'0 0.0 220 / 21003.5 7.1 3.2 9.6
2015-May-20 03:00N 60°18' E 005°18'0 0.0 130 / 21002.8 7.1 2.810.0
2015-May-20 02:00N 60°18' E 005°18'0 0.0 160 / 41002.2 7.6 2.610.1
2015-May-20 00:00N 60°18' E 005°18'0 0.0 160 / 61001.2 7.6 3.110.2
2015-May-19 23:00N 60°18' E 005°18'0 0.0 160 / 61000.7 7.5 3.710.2
2015-May-19 22:00N 60°18' E 005°18'0 0.0 160 / 61000.2 7.3 3.910.3
2015-May-19 21:00N 60°18' E 005°18'0 0.0 150 / 6999.5 7.3 5.010.2
2015-May-19 20:00N 60°18' E 005°18'0 0.0 140 / 4999.0 7.6 4.410.3
2015-May-19 19:00N 60°18' E 005°18'0 0.0 220 / 4998.1 8.0 4.210.3
2015-May-19 18:00N 60°18' E 005°18'0 0.0 200 / 2997.4 9.0 4.810.2
2015-May-19 17:00N 60°18' E 005°18'0 0.0 180 / 8997.0 9.6 4.310.3
2015-May-19 16:00N 60°18' E 005°18'0 0.0 160 / 4995.8 10.5 2.610.3
2015-May-19 15:00N 60°18' E 005°18'0 0.0 160 / 4995.6 10.6 3.610.1
2015-May-19 14:00N 60°18' E 005°18'0 0.0 160 / 6995.0 11.0 4.010.1
2015-May-19 13:00N 60°18' E 005°18'0 0.0 180 / 6995.0 9.3 4.610.2
2015-May-19 12:00N 60°18' E 005°18'0 0.0 180 / 6993.9 11.7 3.710.3
2015-May-19 11:00N 60°18' E 005°18'0 0.0 170 / 6994.0 8.3 3.610.1
2015-May-19 10:00N 60°18' E 005°18'0 0.0 180 / 8993.4 8.6 3.710.0
2015-May-19 09:00N 60°18' E 005°18'0 0.0 180 / 6992.0 0.7-7.310.1
2015-May-19 08:00N 60°18' E 005°18'0 0.0 140 / 8991.3 11.4-0.110.2
2015-May-19 06:00N 60°18' E 005°18'0 0.0 120 / 14991.0 11.1-1.910.2
2015-May-19 05:00N 60°18' E 005°18'0 0.0 130 / 10992.0 9.6-0.010.3
2015-May-19 04:00N 60°18' E 005°18'0 0.0 120 / 8992.5 11.0-3.110.3
2015-May-19 03:00N 60°18' E 005°18'0 0.0 130 / 12993.1 11.3-4.410.3
2015-May-19 02:00N 60°18' E 005°18'0 0.0 120 / 10994.0 11.3-5.710.4
2015-May-19 01:00N 60°18' E 005°18'0 0.0 120 / 6995.1 11.8-6.610.5
2015-May-19 00:00N 60°18' E 005°18'0 0.0 110 / 8995.8 12.0-6.010.4
2015-May-18 21:00N 60°18' E 005°18'0 0.0 140 / 10998.3 11.7-2.510.5
2015-May-18 20:00N 60°18' E 005°18'0 0.0 140 / 6998.5 12.8-3.510.5
2015-May-18 18:00N 60°18' E 005°18'0 0.0 130 / 4999.4 13.1-4.010.2
2015-May-18 16:00N 60°18' E 005°18'0 0.0 160 / 61001.2 12.8-4.610.1
2015-May-18 15:00N 60°18' E 005°18'0 0.0 140 / 61002.3 12.9-5.210.0
2015-May-18 14:00N 60°18' E 005°18'0 0.0 110 / 101003.1 11.1-3.310.1
2015-May-18 12:00N 60°18' E 005°18'0 0.0 180 / 81004.6 10.9-3.210.0
2015-May-18 11:00N 60°18' E 005°18'0 0.0 170 / 81004.8 11.4-4.3 9.8
2015-May-18 09:00N 60°18' E 005°18'0 0.0 160 / 61006.0 10.3-1.410.1
2015-May-18 08:00N 60°18' E 005°18'0 0.0 150 / 81006.6 9.2-0.710.0
2015-May-18 07:00N 60°18' E 005°18'0 0.0 160 / 61007.2 8.2 0.610.1
2015-May-18 06:00N 60°18' E 005°18'0 0.0 160 / 41008.0 7.5 1.510.1
2015-May-18 05:00N 60°18' E 005°18'0 0.0 170 / 41008.6 6.6 2.310.2
2015-May-18 04:00N 60°18' E 005°18'0 0.0 180 / 41008.8 5.5 2.410.1
2015-May-18 03:00N 60°18' E 005°18'   160 / 21009.2 5.4 2.410.3

Dump ship's entire track history